Time;durP1;ratioP1;P1;durP2;ratioP2;P2;SDS_P1;SDS_P2;PMS_P1;PMS_P2;Temp;Humidity;BMP_temperature;BMP_pressure;BME280_temperature;BME280_humidity;BME280_pressure;Samples;Min_cycle;Max_cycle;Signal;HPM_P1;HPM_P2
2023/04/01 00:00:44;;;;;;;;;;;27.80;99.90;;;;;;4948416;23;20370;-45
2023/04/01 00:03:10;;;;;;;;;;;27.70;99.90;;;;;;4937630;29;19953;-46
2023/04/01 00:05:35;;;;;;;;;;;27.70;99.90;;;;;;4937678;29;19915;-45
2023/04/01 00:08:01;;;;;;;;;;;27.70;99.90;;;;;;4937527;29;19906;-45
2023/04/01 00:10:27;;;;;;;;;;;27.70;99.90;;;;;;4937938;29;19906;-45
2023/04/01 00:12:53;;;;;;;;;;;27.70;99.90;;;;;;4937238;29;19911;-45
2023/04/01 00:15:18;;;;;;;;;;;27.70;99.90;;;;;;4937588;29;20322;-45
2023/04/01 00:17:44;;;;;;;;;;;27.70;99.90;;;;;;4937392;29;19946;-45
2023/04/01 00:20:10;;;;;;;;;;;27.70;99.90;;;;;;4937416;29;19961;-45
2023/04/01 00:22:36;;;;;;;;;;;27.70;99.90;;;;;;4952108;29;19907;-46
2023/04/01 00:25:02;;;;;;;;;;;27.70;99.90;;;;;;4937190;29;19917;-45
2023/04/01 00:27:27;;;;;;;;;;;27.70;99.90;;;;;;4937600;29;20334;-45
2023/04/01 00:29:53;;;;;;;;;;;27.70;99.90;;;;;;4937094;29;19906;-45
2023/04/01 00:32:19;;;;;;;;;;;27.60;99.90;;;;;;4937371;29;19911;-45
2023/04/01 00:34:45;;;;;;;;;;;27.60;99.90;;;;;;4937119;29;20362;-46
2023/04/01 00:37:11;;;;;;;;;;;27.60;99.90;;;;;;4937072;29;19907;-45
2023/04/01 00:39:36;;;;;;;;;;;27.60;99.90;;;;;;4936910;29;19954;-45
2023/04/01 00:42:03;;;;;;;;;;;27.60;99.90;;;;;;4936984;29;19907;-45
2023/04/01 00:44:30;;;;;;;;;;;27.60;99.90;;;;;;4937121;29;19907;-45
2023/04/01 00:46:56;;;;;;;;;;;27.60;99.90;;;;;;4937125;29;20089;-45
2023/04/01 00:49:23;;;;;;;;;;;27.60;99.90;;;;;;4936913;29;19954;-47
2023/04/01 00:51:51;;;;;;;;;;;27.50;99.90;;;;;;4967599;28;19914;-47
2023/04/01 00:54:18;;;;;;;;;;;27.50;99.90;;;;;;4936681;29;20287;-47
2023/04/01 00:57:01;;;;;;;;;;;27.50;99.90;;;;;;4951311;29;19944;-47
2023/04/01 00:59:33;;;;;;;;;;;27.50;99.90;;;;;;4937347;29;19911;-47
2023/04/01 01:02:00;;;;;;;;;;;27.50;99.90;;;;;;4924372;29;20045;-47
2023/04/01 01:04:27;;;;;;;;;;;27.50;99.90;;;;;;4936567;29;19911;-47
2023/04/01 01:07:08;;;;;;;;;;;27.50;99.90;;;;;;4936340;29;19930;-47
2023/04/01 01:09:39;;;;;;;;;;;27.50;99.90;;;;;;4936407;29;20395;-47
2023/04/01 01:12:05;;;;;;;;;;;27.50;99.90;;;;;;4936491;29;19907;-47
2023/04/01 01:14:34;;;;;;;;;;;27.50;99.90;;;;;;4936526;29;19907;-49
2023/04/01 01:17:04;;;;;;;;;;;27.40;99.90;;;;;;4936669;29;19911;-51
2023/04/01 01:19:38;;;;;;;;;;;27.40;99.90;;;;;;4936488;29;19985;-47
2023/04/01 01:22:22;;;;;;;;;;;27.40;99.90;;;;;;4936291;29;19907;-47
2023/04/01 01:24:55;;;;;;;;;;;27.40;99.90;;;;;;4935175;29;19914;-47
2023/04/01 01:27:21;;;;;;;;;;;27.40;99.90;;;;;;4936285;29;19906;-47
2023/04/01 01:29:58;;;;;;;;;;;27.40;99.90;;;;;;4936007;29;19907;-47
2023/04/01 01:32:37;;;;;;;;;;;27.40;99.90;;;;;;4936239;29;20275;-47
2023/04/01 01:35:21;;;;;;;;;;;27.40;99.90;;;;;;4950860;29;19915;-47
2023/04/01 01:37:49;;;;;;;;;;;27.30;99.90;;;;;;4936027;29;19913;-47
2023/04/01 01:40:15;;;;;;;;;;;27.30;99.90;;;;;;4934714;29;19930;-47
2023/04/01 01:42:43;;;;;;;;;;;27.30;99.90;;;;;;4935912;29;19907;-47
2023/04/01 01:45:10;;;;;;;;;;;27.30;99.90;;;;;;4935681;29;19910;-47
2023/04/01 01:47:36;;;;;;;;;;;27.20;99.90;;;;;;4935925;29;20013;-47
2023/04/01 01:50:03;;;;;;;;;;;27.30;99.90;;;;;;4935733;29;19921;-48
2023/04/01 01:52:29;;;;;;;;;;;27.20;99.90;;;;;;4936000;29;20362;-46
2023/04/01 01:54:56;;;;;;;;;;;27.20;99.90;;;;;;4935560;29;20081;-46
2023/04/01 01:57:33;;;;;;;;;;;27.20;99.90;;;;;;4935680;29;19907;-46
2023/04/01 02:00:13;;;;;;;;;;;27.20;99.90;;;;;;4965247;23;19945;-54
2023/04/01 02:02:40;;;;;;;;;;;27.20;99.90;;;;;;4935563;29;19910;-55
2023/04/01 02:05:09;;;;;;;;;;;27.20;99.90;;;;;;4935334;29;19962;-54
2023/04/01 02:07:35;;;;;;;;;;;27.20;99.90;;;;;;4935726;29;20286;-55
2023/04/01 02:10:01;;;;;;;;;;;27.10;99.90;;;;;;4935557;29;19906;-53
2023/04/01 02:12:28;;;;;;;;;;;27.10;99.90;;;;;;4935389;29;19929;-54
2023/04/01 02:15:23;;;;;;;;;;;27.10;99.90;;;;;;4935336;29;20032;-56
2023/04/01 02:17:50;;;;;;;;;;;27.10;99.90;;;;;;4931109;29;20278;-54
2023/04/01 02:20:20;;;;;;;;;;;27.10;99.90;;;;;;4935326;29;19907;-53
2023/04/01 02:22:49;;;;;;;;;;;27.10;99.90;;;;;;4935331;29;20388;-55
2023/04/01 02:25:18;;;;;;;;;;;27.10;99.90;;;;;;4935190;29;19969;-54
2023/04/01 02:27:45;;;;;;;;;;;27.00;99.90;;;;;;4935214;29;19918;-54
2023/04/01 02:30:11;;;;;;;;;;;27.00;99.90;;;;;;4935276;29;19914;-56
2023/04/01 02:32:38;;;;;;;;;;;27.00;99.90;;;;;;4935273;29;19907;-56
2023/04/01 02:35:08;;;;;;;;;;;27.00;99.90;;;;;;4935090;29;20423;-54
2023/04/01 02:37:34;;;;;;;;;;;27.00;99.90;;;;;;4935056;29;19907;-54
2023/04/01 02:40:00;;;;;;;;;;;27.00;99.90;;;;;;4934957;29;20373;-55
2023/04/01 02:42:26;;;;;;;;;;;27.00;99.90;;;;;;4935165;29;20300;-55
2023/04/01 02:44:52;;;;;;;;;;;27.00;99.90;;;;;;4935129;29;19962;-55
2023/04/01 02:47:17;;;;;;;;;;;27.00;99.90;;;;;;4935016;29;19907;-55
2023/04/01 02:49:43;;;;;;;;;;;26.90;99.90;;;;;;4935061;29;20365;-55
2023/04/01 02:52:08;;;;;;;;;;;27.00;99.90;;;;;;4935110;29;19907;-55
2023/04/01 02:54:34;;;;;;;;;;;26.90;99.90;;;;;;4934703;29;20338;-55
2023/04/01 02:57:00;;;;;;;;;;;26.90;99.90;;;;;;4935004;29;19907;-54
2023/04/01 02:59:29;;;;;;;;;;;26.90;99.90;;;;;;4941116;23;19907;31
2023/04/01 03:01:55;;;;;;;;;;;26.90;99.90;;;;;;4877113;29;20002;-45
2023/04/01 03:04:20;;;;;;;;;;;26.90;99.90;;;;;;4878669;29;19998;-45
2023/04/01 03:06:46;;;;;;;;;;;26.90;99.90;;;;;;4878166;29;19916;-46
2023/04/01 03:09:12;;;;;;;;;;;26.80;99.90;;;;;;4878395;29;19907;-45
2023/04/01 03:11:38;;;;;;;;;;;26.90;99.90;;;;;;4878163;29;19907;-46
2023/04/01 03:14:03;;;;;;;;;;;26.90;99.90;;;;;;4878305;29;20002;-45
2023/04/01 03:16:29;;;;;;;;;;;26.80;99.90;;;;;;4878340;29;19998;-45
2023/04/01 03:18:58;;;;;;;;;;;26.80;99.90;;;;;;4878560;29;20364;-46
2023/04/01 03:21:24;;;;;;;;;;;26.80;99.90;;;;;;4878522;29;19951;-45
2023/04/01 03:23:50;;;;;;;;;;;26.80;99.90;;;;;;4878330;29;20357;-46
2023/04/01 03:26:16;;;;;;;;;;;26.80;99.90;;;;;;4877928;29;19972;-45
2023/04/01 03:28:41;;;;;;;;;;;26.80;99.90;;;;;;4878158;29;19908;-46
2023/04/01 03:31:07;;;;;;;;;;;26.80;99.90;;;;;;4878006;29;19930;-46
2023/04/01 03:33:33;;;;;;;;;;;26.80;99.90;;;;;;4878172;29;19915;-46
2023/04/01 03:35:58;;;;;;;;;;;26.70;99.90;;;;;;4878154;29;20256;-46
2023/04/01 03:38:24;;;;;;;;;;;26.70;99.90;;;;;;4877986;29;20376;-46
2023/04/01 03:40:50;;;;;;;;;;;26.70;99.90;;;;;;4878194;29;19954;-45
2023/04/01 03:43:16;;;;;;;;;;;26.70;99.90;;;;;;4877908;29;19962;-45
2023/04/01 03:45:45;;;;;;;;;;;26.70;99.90;;;;;;4877986;29;19964;-46
2023/04/01 03:48:11;;;;;;;;;;;26.70;99.90;;;;;;4878895;29;19915;-46
2023/04/01 03:50:36;;;;;;;;;;;26.70;99.90;;;;;;4881492;29;20284;-45
2023/04/01 03:53:02;;;;;;;;;;;26.70;99.90;;;;;;4881126;29;19966;-46
2023/04/01 03:55:28;;;;;;;;;;;26.70;99.90;;;;;;4881441;29;19909;-45
2023/04/01 03:57:53;;;;;;;;;;;26.70;99.90;;;;;;4881337;29;19908;-46
2023/04/01 04:00:19;;;;;;;;;;;26.70;99.90;;;;;;4899714;23;20030;-54
2023/04/01 04:02:45;;;;;;;;;;;26.70;99.90;;;;;;4900367;29;19914;-54
2023/04/01 04:05:10;;;;;;;;;;;26.60;99.90;;;;;;4887340;29;20014;-55
2023/04/01 04:07:36;;;;;;;;;;;26.60;99.90;;;;;;4899695;29;20282;-55
2023/04/01 04:10:02;;;;;;;;;;;26.60;99.90;;;;;;4899343;29;19907;-54
2023/04/01 04:12:27;;;;;;;;;;;26.60;99.90;;;;;;4899934;29;19911;-54
2023/04/01 04:14:53;;;;;;;;;;;26.60;99.90;;;;;;4898040;29;19915;-54
2023/04/01 04:17:18;;;;;;;;;;;26.60;99.90;;;;;;4914272;29;19947;-55
2023/04/01 04:19:44;;;;;;;;;;;26.60;99.90;;;;;;4899638;29;19915;-54
2023/04/01 04:22:10;;;;;;;;;;;26.60;99.90;;;;;;4899397;29;20403;-54
2023/04/01 04:24:35;;;;;;;;;;;26.50;99.90;;;;;;4899500;29;19907;-54
2023/04/01 04:27:01;;;;;;;;;;;26.60;99.90;;;;;;4893137;29;19935;-54
2023/04/01 04:29:27;;;;;;;;;;;26.50;99.90;;;;;;4893276;29;19911;-54
2023/04/01 04:31:52;;;;;;;;;;;26.50;99.90;;;;;;4874417;29;20415;-53
2023/04/01 04:34:18;;;;;;;;;;;26.50;99.90;;;;;;4898099;29;19930;-54
2023/04/01 04:36:44;;;;;;;;;;;26.50;99.90;;;;;;4898984;29;20002;-53
2023/04/01 04:39:10;;;;;;;;;;;26.50;99.90;;;;;;4899276;29;19907;-54
2023/04/01 04:41:37;;;;;;;;;;;26.50;99.90;;;;;;4886741;29;20271;-54
2023/04/01 04:44:02;;;;;;;;;;;26.50;99.90;;;;;;4913333;29;19907;-54
2023/04/01 04:46:28;;;;;;;;;;;26.50;99.90;;;;;;4896937;29;19922;-54
2023/04/01 04:48:53;;;;;;;;;;;26.40;99.90;;;;;;4888358;29;19907;-54
2023/04/01 04:51:20;;;;;;;;;;;26.40;99.90;;;;;;4898899;29;20308;-53
2023/04/01 04:53:46;;;;;;;;;;;26.40;99.90;;;;;;4874289;29;20312;-55
2023/04/01 04:56:12;;;;;;;;;;;26.40;99.90;;;;;;4898751;29;19914;-56
2023/04/01 04:58:38;;;;;;;;;;;26.40;99.90;;;;;;4894142;29;20371;-58
2023/04/01 05:01:10;;;;;;;;;;;26.40;99.90;;;;;;4889908;29;19975;-54
2023/04/01 05:03:36;;;;;;;;;;;26.40;99.90;;;;;;4913069;29;19939;-53
2023/04/01 05:06:02;;;;;;;;;;;26.40;99.90;;;;;;4888196;29;20328;-53
2023/04/01 05:08:28;;;;;;;;;;;26.40;99.90;;;;;;4896727;29;19998;-53
2023/04/01 05:10:55;;;;;;;;;;;26.40;99.90;;;;;;4898620;29;19954;-53
2023/04/01 05:13:20;;;;;;;;;;;26.30;99.90;;;;;;4886629;29;20303;-53
2023/04/01 05:15:46;;;;;;;;;;;26.30;99.90;;;;;;4898582;29;20395;-54
2023/04/01 05:18:12;;;;;;;;;;;26.30;99.90;;;;;;4898191;29;19946;-54
2023/04/01 05:20:37;;;;;;;;;;;26.30;99.90;;;;;;4898271;29;20241;-55
2023/04/01 05:23:03;;;;;;;;;;;26.30;99.90;;;;;;4896673;29;19933;-55
2023/04/01 05:25:29;;;;;;;;;;;26.30;99.90;;;;;;4898574;29;19915;-55
2023/04/01 05:27:54;;;;;;;;;;;26.30;99.90;;;;;;4898151;29;19994;-54
2023/04/01 05:30:20;;;;;;;;;;;26.30;99.90;;;;;;4897855;29;20375;-53
2023/04/01 05:32:46;;;;;;;;;;;26.30;99.90;;;;;;4887554;29;19915;-54
2023/04/01 05:35:11;;;;;;;;;;;26.30;99.90;;;;;;4896552;29;19930;-55
2023/04/01 05:37:37;;;;;;;;;;;26.20;99.90;;;;;;4898185;29;19911;-53
2023/04/01 05:40:03;;;;;;;;;;;26.30;99.90;;;;;;4898446;29;19908;-54
2023/04/01 05:42:29;;;;;;;;;;;26.30;99.90;;;;;;4912762;29;19907;-54
2023/04/01 05:44:55;;;;;;;;;;;26.20;99.90;;;;;;4896471;29;19914;-54
2023/04/01 05:47:21;;;;;;;;;;;26.20;99.90;;;;;;4886966;29;19942;-53
2023/04/01 05:49:47;;;;;;;;;;;26.20;99.90;;;;;;4897573;29;19971;-54
2023/04/01 05:52:13;;;;;;;;;;;26.20;99.90;;;;;;4897833;29;19911;-54
2023/04/01 05:54:38;;;;;;;;;;;26.20;99.90;;;;;;4897978;29;20368;-54
2023/04/01 05:57:04;;;;;;;;;;;26.20;99.90;;;;;;4897997;29;19934;-53
2023/04/01 05:59:31;;;;;;;;;;;26.20;99.90;;;;;;4886542;29;19915;-53
2023/04/01 06:01:57;;;;;;;;;;;26.20;99.90;;;;;;4884337;29;19923;-54
2023/04/01 06:04:23;;;;;;;;;;;26.20;99.90;;;;;;4897781;29;19985;-54
2023/04/01 06:06:48;;;;;;;;;;;26.20;99.90;;;;;;4897169;29;19922;-54
2023/04/01 06:09:18;;;;;;;;;;;26.20;99.90;;;;;;4897517;29;20249;-54
2023/04/01 06:11:51;;;;;;;;;;;26.10;99.90;;;;;;4896930;29;19907;-55
2023/04/01 06:14:26;;;;;;;;;;;26.10;99.90;;;;;;4897655;29;19907;-55
2023/04/01 06:16:58;;;;;;;;;;;26.10;99.90;;;;;;4897261;29;20390;-54
2023/04/01 06:19:23;;;;;;;;;;;26.10;99.90;;;;;;4886846;29;19908;-54
2023/04/01 06:22:08;;;;;;;;;;;26.10;99.90;;;;;;4895198;29;19907;-54
2023/04/01 06:24:33;;;;;;;;;;;26.10;99.90;;;;;;4896126;29;19907;-54
2023/04/01 06:27:18;;;;;;;;;;;26.10;99.90;;;;;;4897109;29;20375;-53
2023/04/01 06:29:47;;;;;;;;;;;26.10;99.90;;;;;;4897041;29;19918;-54
2023/04/01 06:32:39;;;;;;;;;;;26.10;99.90;;;;;;4889867;29;19908;-54
2023/04/01 06:35:05;;;;;;;;;;;26.10;99.90;;;;;;4881597;29;19986;-55
2023/04/01 06:37:49;;;;;;;;;;;26.00;99.90;;;;;;4897352;29;19995;-55
2023/04/01 06:40:26;;;;;;;;;;;26.00;99.90;;;;;;4897274;29;19929;-55
2023/04/01 06:43:01;;;;;;;;;;;26.00;99.90;;;;;;4897141;29;19908;-56
2023/04/01 06:45:39;;;;;;;;;;;26.00;99.90;;;;;;4871157;29;19919;-55
2023/04/01 06:48:31;;;;;;;;;;;26.00;99.90;;;;;;4897163;29;19912;-54
2023/04/01 06:51:05;;;;;;;;;;;26.00;99.90;;;;;;4903395;29;20302;-54
2023/04/01 06:53:50;;;;;;;;;;;26.00;99.90;;;;;;4897178;29;19907;-54
2023/04/01 06:56:18;;;;;;;;;;;26.10;99.90;;;;;;4896714;29;19911;-55
2023/04/01 06:58:43;;;;;;;;;;;26.10;99.90;;;;;;4891760;29;19955;-54
2023/04/01 07:01:20;;;;;;;;;;;26.10;99.90;;;;;;4890014;29;20006;-57
2023/04/01 07:03:53;;;;;;;;;;;26.10;99.90;;;;;;4897409;29;19927;-57
2023/04/01 07:06:25;;;;;;;;;;;26.10;99.90;;;;;;4896976;29;19915;-55
2023/04/01 07:08:52;;;;;;;;;;;26.10;99.90;;;;;;4897044;29;19915;-55
2023/04/01 07:11:26;;;;;;;;;;;26.10;99.90;;;;;;4896869;29;19910;-56
2023/04/01 07:13:58;;;;;;;;;;;26.10;99.90;;;;;;4897208;29;19914;-56
2023/04/01 07:16:27;;;;;;;;;;;26.10;99.90;;;;;;4896697;29;19946;-56
2023/04/01 07:19:02;;;;;;;;;;;26.10;99.90;;;;;;4890566;29;20341;-56
2023/04/01 07:21:40;;;;;;;;;;;26.10;99.90;;;;;;4892042;29;19911;-55
2023/04/01 07:24:10;;;;;;;;;;;26.10;99.90;;;;;;4899520;29;19908;-56
2023/04/01 07:26:36;;;;;;;;;;;26.20;99.90;;;;;;4887936;29;19922;-55
2023/04/01 07:29:05;;;;;;;;;;;26.20;99.90;;;;;;4900333;29;19907;-56
2023/04/01 07:31:43;;;;;;;;;;;26.20;99.90;;;;;;4898222;29;19907;-54
2023/04/01 07:34:35;;;;;;;;;;;26.20;99.90;;;;;;4891014;29;19963;-55
2023/04/01 07:37:04;;;;;;;;;;;26.20;99.90;;;;;;4901172;29;19915;-56
2023/04/01 07:39:35;;;;;;;;;;;26.20;99.90;;;;;;4900409;29;19912;-56
2023/04/01 07:42:27;;;;;;;;;;;26.20;99.90;;;;;;4899918;29;19907;-56
2023/04/01 07:44:56;;;;;;;;;;;26.20;99.90;;;;;;4900749;29;19908;-55
2023/04/01 07:47:40;;;;;;;;;;;26.20;99.90;;;;;;4899960;29;19915;-55
2023/04/01 07:50:31;;;;;;;;;;;26.20;99.90;;;;;;4900080;29;19914;-55
2023/04/01 07:53:00;;;;;;;;;;;26.20;99.90;;;;;;4888159;29;19916;-56
2023/04/01 07:55:30;;;;;;;;;;;26.30;99.90;;;;;;4875638;29;19993;-55
2023/04/01 07:58:04;;;;;;;;;;;26.30;99.90;;;;;;4900098;29;19911;-55
2023/04/01 08:00:35;;;;;;;;;;;26.30;99.90;;;;;;4899854;29;19986;-55
2023/04/01 08:03:13;;;;;;;;;;;26.30;99.90;;;;;;4899628;29;19919;-55
2023/04/01 08:05:57;;;;;;;;;;;26.30;99.90;;;;;;4900022;29;20005;-55
2023/04/01 08:08:46;;;;;;;;;;;26.30;99.90;;;;;;4899446;29;19911;-55
2023/04/01 08:11:20;;;;;;;;;;;26.30;99.90;;;;;;4907370;29;20376;-55
2023/04/01 08:13:46;;;;;;;;;;;26.30;99.90;;;;;;4898539;29;19907;-55
2023/04/01 08:16:17;;;;;;;;;;;26.30;99.90;;;;;;4899456;29;19929;-55
2023/04/01 08:18:50;;;;;;;;;;;26.40;99.90;;;;;;4899749;29;19908;-56
2023/04/01 08:21:28;;;;;;;;;;;26.40;99.90;;;;;;4899540;29;19908;-55
2023/04/01 08:23:57;;;;;;;;;;;26.40;99.90;;;;;;4878132;29;19911;-55
2023/04/01 08:26:29;;;;;;;;;;;26.40;99.90;;;;;;4886771;29;20266;-56
2023/04/01 08:28:59;;;;;;;;;;;26.40;99.90;;;;;;4899514;29;19907;-56
2023/04/01 08:31:25;;;;;;;;;;;26.40;99.90;;;;;;4899200;29;19946;-54
2023/04/01 08:33:53;;;;;;;;;;;26.40;99.90;;;;;;4899070;29;20331;-55
2023/04/01 08:36:28;;;;;;;;;;;26.40;99.90;;;;;;4898926;29;19911;-54
2023/04/01 08:38:56;;;;;;;;;;;26.40;99.90;;;;;;4899511;29;20276;-56
2023/04/01 08:41:34;;;;;;;;;;;26.40;99.90;;;;;;4899121;29;19917;-55
2023/04/01 08:44:19;;;;;;;;;;;26.40;99.90;;;;;;4899244;29;19908;-56
2023/04/01 08:47:03;;;;;;;;;;;26.40;99.90;;;;;;4898956;29;19953;-54
2023/04/01 08:49:55;;;;;;;;;;;26.50;99.90;;;;;;4898903;29;19907;-54
2023/04/01 08:52:33;;;;;;;;;;;26.50;99.90;;;;;;4899756;29;19907;-55
2023/04/01 08:55:11;;;;;;;;;;;26.50;99.90;;;;;;4913704;29;19914;-54
2023/04/01 08:57:42;;;;;;;;;;;26.40;99.90;;;;;;4899294;29;19914;-55
2023/04/01 09:00:34;;;;;;;;;;;26.50;99.90;;;;;;4898714;29;20372;-55
2023/04/01 09:03:19;;;;;;;;;;;26.50;99.90;;;;;;4899401;29;19907;-57
2023/04/01 09:06:02;;;;;;;;;;;26.50;99.90;;;;;;4898911;29;19912;-56
2023/04/01 09:08:27;;;;;;;;;;;26.50;99.90;;;;;;4898244;29;19911;-56
2023/04/01 09:11:07;;;;;;;;;;;26.50;99.90;;;;;;4898868;29;20369;-55
2023/04/01 09:13:39;;;;;;;;;;;26.50;99.90;;;;;;4898589;29;20003;-54
2023/04/01 09:16:16;;;;;;;;;;;26.50;99.90;;;;;;4898662;29;19953;-54
2023/04/01 09:18:48;;;;;;;;;;;26.50;99.90;;;;;;4898830;29;19914;-56
2023/04/01 09:21:23;;;;;;;;;;;26.50;99.90;;;;;;4898884;29;19907;-54
2023/04/01 09:23:48;;;;;;;;;;;26.50;99.90;;;;;;4898446;29;19986;-55
2023/04/01 09:26:20;;;;;;;;;;;26.60;99.90;;;;;;4898673;29;20010;-55
2023/04/01 09:29:02;;;;;;;;;;;26.60;99.90;;;;;;4898429;29;19911;-56
2023/04/01 09:31:30;;;;;;;;;;;26.60;99.90;;;;;;4897246;29;19911;-55
2023/04/01 09:34:19;;;;;;;;;;;26.60;99.90;;;;;;4886582;29;19911;-56
2023/04/01 09:36:46;;;;;;;;;;;26.60;99.90;;;;;;4897994;29;20280;-55
2023/04/01 09:39:24;;;;;;;;;;;26.60;99.90;;;;;;4898478;29;19908;-55
2023/04/01 09:41:52;;;;;;;;;;;26.60;99.90;;;;;;4897708;29;19944;-55
2023/04/01 09:44:27;;;;;;;;;;;26.60;99.90;;;;;;4898065;29;19907;-55
2023/04/01 09:46:55;;;;;;;;;;;26.60;99.90;;;;;;4897415;29;19915;-54
2023/04/01 09:49:40;;;;;;;;;;;26.60;99.90;;;;;;4898134;29;19907;-55
2023/04/01 09:52:09;;;;;;;;;;;26.60;99.90;;;;;;4897839;29;19911;-55
2023/04/01 09:54:53;;;;;;;;;;;26.70;99.90;;;;;;4898266;29;19911;-54
2023/04/01 09:57:37;;;;;;;;;;;26.70;99.90;;;;;;4874642;29;19962;-54
2023/04/01 10:00:03;;;;;;;;;;;26.70;99.90;;;;;;4897567;29;20359;-53
2023/04/01 10:02:41;;;;;;;;;;;26.70;99.90;;;;;;4898025;29;19913;-55
2023/04/01 10:05:22;;;;;;;;;;;26.70;99.90;;;;;;4897542;29;19916;-55
2023/04/01 10:08:03;;;;;;;;;;;26.70;99.90;;;;;;4897686;29;19971;-55
2023/04/01 10:10:50;;;;;;;;;;;26.70;99.90;;;;;;4897380;29;19907;-54
2023/04/01 10:13:22;;;;;;;;;;;26.80;99.90;;;;;;4896717;29;19907;-53
2023/04/01 10:15:48;;;;;;;;;;;26.80;99.90;;;;;;4887429;29;20295;-54
2023/04/01 10:18:20;;;;;;;;;;;26.80;99.90;;;;;;4897641;29;19914;-55
2023/04/01 10:20:48;;;;;;;;;;;26.80;99.90;;;;;;4897979;29;19914;-54
2023/04/01 10:23:32;;;;;;;;;;;26.80;99.90;;;;;;4897439;29;20376;-53
2023/04/01 10:25:57;;;;;;;;;;;26.80;99.90;;;;;;4896160;29;19954;-53
2023/04/01 10:28:26;;;;;;;;;;;26.80;99.90;;;;;;4897123;29;20003;-54
2023/04/01 10:31:05;;;;;;;;;;;26.80;99.90;;;;;;4897330;29;20448;-54
2023/04/01 10:33:30;;;;;;;;;;;26.80;99.90;;;;;;4897145;29;20358;-55
2023/04/01 10:35:59;;;;;;;;;;;26.90;99.90;;;;;;4890007;29;19907;-55
2023/04/01 10:38:27;;;;;;;;;;;26.90;99.90;;;;;;4892848;29;19907;-55
2023/04/01 10:41:04;;;;;;;;;;;26.90;99.90;;;;;;4897368;29;19994;-54
2023/04/01 10:43:36;;;;;;;;;;;26.90;99.90;;;;;;4895532;29;19914;-55
2023/04/01 10:46:05;;;;;;;;;;;26.90;99.90;;;;;;4887375;29;20344;-54
2023/04/01 10:48:39;;;;;;;;;;;27.00;99.90;;;;;;4895777;29;20367;-55
2023/04/01 10:51:09;;;;;;;;;;;26.90;99.90;;;;;;4897198;29;20332;-56
2023/04/01 10:53:41;;;;;;;;;;;27.00;99.90;;;;;;4897073;29;19985;-53
2023/04/01 10:56:25;;;;;;;;;;;27.00;99.90;;;;;;4897127;29;19907;-53
2023/04/01 10:59:09;;;;;;;;;;;27.00;99.90;;;;;;4900747;29;20324;-53
2023/04/01 11:01:44;;;;;;;;;;;27.00;99.90;;;;;;4900542;29;19974;-54
2023/04/01 11:04:29;;;;;;;;;;;27.00;99.90;;;;;;4900971;29;19911;-54
2023/04/01 11:07:03;;;;;;;;;;;27.10;99.90;;;;;;4900556;29;19915;-54
2023/04/01 11:09:29;;;;;;;;;;;27.10;99.90;;;;;;4900914;29;20001;-53
2023/04/01 11:12:03;;;;;;;;;;;27.10;99.90;;;;;;4888353;29;20419;-54
2023/04/01 11:14:32;;;;;;;;;;;27.10;99.90;;;;;;4901207;29;19907;-54
2023/04/01 11:17:10;;;;;;;;;;;27.10;99.90;;;;;;4898254;29;19977;-54
2023/04/01 11:19:37;;;;;;;;;;;27.20;99.90;;;;;;4892137;29;19990;-52
2023/04/01 11:22:09;;;;;;;;;;;27.20;99.90;;;;;;4900396;29;19983;-55
2023/04/01 11:24:41;;;;;;;;;;;27.20;99.90;;;;;;4900631;29;19950;-54
2023/04/01 11:27:06;;;;;;;;;;;27.20;99.90;;;;;;4900163;29;20348;-54
2023/04/01 11:29:44;;;;;;;;;;;27.20;99.90;;;;;;4899362;29;19950;-55
2023/04/01 11:32:28;;;;;;;;;;;27.30;99.90;;;;;;4888029;29;19911;-55
2023/04/01 11:34:53;;;;;;;;;;;27.30;99.90;;;;;;4900293;29;19907;-55
2023/04/01 11:37:19;;;;;;;;;;;27.40;99.90;;;;;;4900590;29;19914;-54
2023/04/01 11:39:56;;;;;;;;;;;27.30;99.90;;;;;;4900404;29;19908;-55
2023/04/01 11:42:57;;;;;;;;;;;27.40;99.90;;;;;;4876063;29;19938;-55
2023/04/01 11:45:33;;;;;;;;;;;27.40;99.90;;;;;;4916698;29;19994;-54
2023/04/01 11:48:22;;;;;;;;;;;27.40;99.90;;;;;;4902318;29;19972;-54
2023/04/01 11:51:06;;;;;;;;;;;27.40;99.90;;;;;;4893247;29;19919;-54
2023/04/01 11:53:34;;;;;;;;;;;27.40;99.90;;;;;;4896222;29;19962;-54
2023/04/01 11:56:03;;;;;;;;;;;27.40;99.90;;;;;;4899821;29;19908;-54
2023/04/01 11:58:42;;;;;;;;;;;27.40;99.90;;;;;;4899766;29;20309;-54
2023/04/01 12:01:14;;;;;;;;;;;27.50;99.90;;;;;;4899841;29;19924;-54
2023/04/01 12:03:42;;;;;;;;;;;27.50;99.90;;;;;;4897134;29;19915;-54
2023/04/01 12:06:14;;;;;;;;;;;27.50;99.90;;;;;;4890679;29;19958;-54
2023/04/01 12:08:46;;;;;;;;;;;27.50;99.90;;;;;;4897600;29;19995;-55
2023/04/01 12:11:15;;;;;;;;;;;27.50;99.90;;;;;;4890905;29;20357;-55
2023/04/01 12:13:56;;;;;;;;;;;27.60;99.90;;;;;;4896823;29;19907;-56
2023/04/01 12:16:40;;;;;;;;;;;27.60;99.90;;;;;;4899981;29;19930;-52
2023/04/01 12:19:23;;;;;;;;;;;27.60;99.90;;;;;;4879130;29;19911;-55
2023/04/01 12:21:55;;;;;;;;;;;27.60;99.90;;;;;;4900042;29;19990;-54
2023/04/01 12:24:20;;;;;;;;;;;27.60;99.90;;;;;;4899550;29;19954;-56
2023/04/01 12:27:04;;;;;;;;;;;27.60;99.90;;;;;;4899358;29;19962;-55
2023/04/01 12:29:44;;;;;;;;;;;27.60;99.90;;;;;;4892730;29;19990;-52
2023/04/01 12:32:28;;;;;;;;;;;27.60;99.90;;;;;;4899195;29;19915;-52
2023/04/01 12:35:20;;;;;;;;;;;27.60;99.90;;;;;;4898445;29;20364;-54
2023/04/01 12:37:45;;;;;;;;;;;27.70;99.90;;;;;;4899250;29;19918;-51
2023/04/01 12:40:24;;;;;;;;;;;27.90;99.90;;;;;;4898714;29;19911;-52
2023/04/01 12:43:08;;;;;;;;;;;27.90;99.90;;;;;;4899646;29;19907;-53
2023/04/01 12:45:54;;;;;;;;;;;28.00;99.90;;;;;;4899227;29;19981;-53
2023/04/01 12:48:20;;;;;;;;;;;28.20;99.90;;;;;;4898844;29;19985;-53
2023/04/01 12:50:54;;;;;;;;;;;28.30;99.90;;;;;;4899309;29;19911;-54
2023/04/01 12:53:40;;;;;;;;;;;28.40;99.90;;;;;;4899713;29;19914;-52
2023/04/01 12:56:32;;;;;;;;;;;28.50;99.90;;;;;;4897755;29;20006;-53
2023/04/01 12:58:59;;;;;;;;;;;28.60;99.90;;;;;;4904358;29;19961;-54
2023/04/01 13:01:28;;;;;;;;;;;28.60;99.90;;;;;;4897870;29;19920;-54
2023/04/01 13:04:28;;;;;;;;;;;28.80;99.90;;;;;;4898151;29;20387;-55
2023/04/01 13:06:57;;;;;;;;;;;28.80;99.90;;;;;;4898589;29;19962;-51
2023/04/01 13:09:41;;;;;;;;;;;28.90;99.90;;;;;;4898704;29;19908;-56
2023/04/01 13:12:21;;;;;;;;;;;29.00;99.90;;;;;;4898996;29;20379;-53
2023/04/01 13:15:07;;;;;;;;;;;29.00;99.90;;;;;;4898627;29;19922;-54
2023/04/01 13:17:51;;;;;;;;;;;29.00;99.90;;;;;;4906249;29;19915;-54
2023/04/01 13:20:20;;;;;;;;;;;29.00;99.90;;;;;;4898001;29;19911;-53
2023/04/01 13:22:51;;;;;;;;;;;29.00;99.90;;;;;;4873935;29;20031;-53
2023/04/01 13:25:28;;;;;;;;;;;29.00;99.90;;;;;;4879262;29;19942;-54
2023/04/01 13:28:00;;;;;;;;;;;29.00;99.90;;;;;;4880025;29;19967;-54
2023/04/01 13:30:50;;;;;;;;;;;28.90;99.90;;;;;;4879233;29;19964;-54
2023/04/01 13:33:34;;;;;;;;;;;29.00;99.90;;;;;;4878566;29;19922;-53
2023/04/01 13:36:18;;;;;;;;;;;28.90;99.90;;;;;;4881580;29;19980;-54
2023/04/01 13:38:55;;;;;;;;;;;28.80;99.90;;;;;;4877668;29;20379;-52
2023/04/01 13:41:47;;;;;;;;;;;28.80;99.90;;;;;;5067116;28;19917;-51
2023/04/01 13:44:19;;;;;;;;;;;28.80;99.90;;;;;;5063464;28;20488;-54
2023/04/01 13:47:03;;;;;;;;;;;28.80;99.90;;;;;;5067088;28;19916;-54
2023/04/01 13:49:46;;;;;;;;;;;28.70;99.90;;;;;;5067338;28;19909;-54
2023/04/01 13:52:12;;;;;;;;;;;28.70;99.90;;;;;;5058937;28;19913;-54
2023/04/01 13:54:50;;;;;;;;;;;28.60;99.90;;;;;;5065059;28;20055;-54
2023/04/01 13:57:15;;;;;;;;;;;28.60;99.90;;;;;;5065800;28;19909;-54
2023/04/01 13:59:44;;;;;;;;;;;28.60;99.90;;;;;;5067280;28;20391;-54
2023/04/01 14:02:42;;;;;;;;;;;28.60;99.90;;;;;;5066997;28;19978;-54
2023/04/01 14:05:09;;;;;;;;;;;28.60;99.90;;;;;;5061371;28;19909;-54
2023/04/01 14:07:41;;;;;;;;;;;28.60;99.90;;;;;;5067086;28;19917;-54
2023/04/01 14:10:25;;;;;;;;;;;28.50;99.90;;;;;;5059844;28;19909;-54
2023/04/01 14:13:00;;;;;;;;;;;28.60;99.90;;;;;;5065887;28;19958;-53
2023/04/01 14:15:36;;;;;;;;;;;28.50;99.90;;;;;;5067124;28;20000;-51
2023/04/01 14:18:20;;;;;;;;;;;28.50;99.90;;;;;;5065862;28;19916;-52
2023/04/01 14:21:05;;;;;;;;;;;28.40;99.90;;;;;;5064726;28;20276;-52
2023/04/01 14:23:36;;;;;;;;;;;28.20;99.90;;;;;;5064279;28;20420;-51
2023/04/01 14:26:21;;;;;;;;;;;28.00;99.90;;;;;;5065747;28;19908;-51
2023/04/01 14:28:46;;;;;;;;;;;27.80;99.90;;;;;;5065616;28;19908;-50
2023/04/01 14:31:15;;;;;;;;;;;27.70;99.90;;;;;;5066947;28;19927;-54
2023/04/01 14:33:43;;;;;;;;;;;27.50;99.90;;;;;;5066357;28;19913;-50
2023/04/01 14:36:27;;;;;;;;;;;27.40;99.90;;;;;;5064124;28;19917;-52
2023/04/01 14:39:19;;;;;;;;;;;27.30;99.90;;;;;;5065807;28;19909;-54
2023/04/01 14:42:03;;;;;;;;;;;27.20;99.90;;;;;;5064204;28;19920;-55
2023/04/01 14:44:47;;;;;;;;;;;27.30;99.90;;;;;;5066537;28;19962;-53